Time;durP1;ratioP1;P1;durP2;ratioP2;P2;SDS_P1;SDS_P2;PMS_P1;PMS_P2;Temp;Humidity;BMP_temperature;BMP_pressure;BME280_temperature;BME280_humidity;BME280_pressure;Samples;Min_cycle;Max_cycle;Signal;HPM_P1;HPM_P2
2023/10/14 00:02:21;;;;;;;2.47;1.05;;;;;;;;;;5088526;28;20024;-59
2023/10/14 00:04:48;;;;;;;1.30;0.80;;;;;;;;;;5091637;28;20031;-59
2023/10/14 00:07:17;;;;;;;1.55;0.88;;;;;;;;;;5085998;28;20501;-60
2023/10/14 00:09:46;;;;;;;3.25;1.35;;;;;;;;;;5086035;28;20028;-60
2023/10/14 00:12:15;;;;;;;1.80;1.13;;;;;;;;;;5086168;28;20048;-59
2023/10/14 00:14:45;;;;;;;2.17;1.27;;;;;;;;;;5085687;28;20040;-59
2023/10/14 00:17:17;;;;;;;2.53;1.20;;;;;;;;;;5090951;28;20024;-59
2023/10/14 00:19:49;;;;;;;2.55;1.42;;;;;;;;;;5093638;28;20032;-59
2023/10/14 00:22:18;;;;;;;8.20;2.03;;;;;;;;;;5094903;28;20039;-59
2023/10/14 00:24:48;;;;;;;2.05;1.05;;;;;;;;;;5094363;28;20051;-59
2023/10/14 00:27:15;;;;;;;3.20;1.27;;;;;;;;;;5094977;28;20040;-59
2023/10/14 00:29:41;;;;;;;5.28;1.52;;;;;;;;;;5089488;28;20118;-60
2023/10/14 00:32:08;;;;;;;3.03;1.42;;;;;;;;;;5089402;28;20024;-58
2023/10/14 00:34:38;;;;;;;12.77;1.08;;;;;;;;;;5089388;28;20024;-60
2023/10/14 00:37:11;;;;;;;2.65;1.20;;;;;;;;;;5089316;28;20028;-61
2023/10/14 00:40:00;;;;;;;1.08;0.85;;;;;;;;;;5093770;28;20412;-59
2023/10/14 00:42:27;;;;;;;1.63;0.90;;;;;;;;;;5094693;28;20028;-59
2023/10/14 00:44:56;;;;;;;1.15;0.68;;;;;;;;;;5094394;28;20028;-59
2023/10/14 00:47:24;;;;;;;1.33;0.82;;;;;;;;;;5088911;28;20024;-59
2023/10/14 00:49:52;;;;;;;2.58;1.25;;;;;;;;;;5099341;28;20028;-59
2023/10/14 00:52:19;;;;;;;11.95;0.95;;;;;;;;;;5108338;28;20035;-59
2023/10/14 00:59:42;;;;;;;2.40;0.80;;;;;;;;;;5109225;28;20066;-59
2023/10/14 01:02:09;;;;;;;7.72;1.33;;;;;;;;;;5105230;28;20482;-59
2023/10/14 01:04:36;;;;;;;1.25;0.82;;;;;;;;;;5094301;28;20024;-59
2023/10/14 01:07:12;;;;;;;1.65;0.88;;;;;;;;;;5094029;28;20073;-59
2023/10/14 01:12:16;;;;;;;7.55;1.10;;;;;;;;;;5094146;28;20032;-59
2023/10/14 01:14:46;;;;;;;0.20;0.20;;;;;;;;;;5088571;28;20024;-59
2023/10/14 01:17:49;;;;;;;2.10;0.82;;;;;;;;;;5088776;28;20039;-60
2023/10/14 01:22:50;;;;;;;3.00;0.63;;;;;;;;;;5088218;28;20119;-59
2023/10/14 01:25:18;;;;;;;1.58;0.88;;;;;;;;;;5093805;28;20027;-60
2023/10/14 01:27:45;;;;;;;2.67;1.30;;;;;;;;;;5093518;28;20028;-60
2023/10/14 01:30:25;;;;;;;0.85;0.70;;;;;;;;;;5093601;28;20024;-60
2023/10/14 01:32:56;;;;;;;1.58;1.00;;;;;;;;;;5093561;28;20028;-59
2023/10/14 01:37:58;;;;;;;1.10;0.63;;;;;;;;;;5088280;28;20043;-59
2023/10/14 01:43:08;;;;;;;4.00;1.33;;;;;;;;;;5087721;28;20036;-59
2023/10/14 01:48:19;;;;;;;2.67;1.20;;;;;;;;;;5093194;28;20036;-59
2023/10/14 01:50:47;;;;;;;1.30;0.87;;;;;;;;;;5093006;28;20054;-59
2023/10/14 01:53:18;;;;;;;2.17;1.20;;;;;;;;;;5093241;28;20024;-59
2023/10/14 01:55:45;;;;;;;2.13;1.08;;;;;;;;;;5092906;28;20058;-59
2023/10/14 01:58:21;;;;;;;1.63;1.10;;;;;;;;;;5091219;28;20046;-59
2023/10/14 02:00:52;;;;;;;2.00;1.20;;;;;;;;;;5087376;28;20032;-59
2023/10/14 02:03:22;;;;;;;6.40;2.00;;;;;;;;;;5087817;28;20429;-59
2023/10/14 02:05:51;;;;;;;3.40;1.93;;;;;;;;;;5087679;28;20024;-59
2023/10/14 02:08:21;;;;;;;6.57;1.90;;;;;;;;;;5088675;28;20016;-59
2023/10/14 02:10:51;;;;;;;3.50;1.50;;;;;;;;;;5093100;28;20031;-59
2023/10/14 02:13:19;;;;;;;1.93;1.10;;;;;;;;;;5092581;28;20073;-59
2023/10/14 02:15:46;;;;;;;3.97;1.40;;;;;;;;;;5092831;28;20024;-59
2023/10/14 02:18:22;;;;;;;2.07;1.10;;;;;;;;;;5092745;28;20084;-59
2023/10/14 02:21:04;;;;;;;4.30;1.63;;;;;;;;;;5091100;28;20355;-59
2023/10/14 02:23:44;;;;;;;2.07;1.23;;;;;;;;;;5086767;28;20052;-59
2023/10/14 02:26:33;;;;;;;6.43;1.47;;;;;;;;;;5087620;28;20050;-59
2023/10/14 02:29:00;;;;;;;1.30;0.90;;;;;;;;;;5086855;28;20020;-59
2023/10/14 02:33:55;;;;;;;2.07;1.17;;;;;;;;;;5092615;28;20030;-59
2023/10/14 02:36:21;;;;;;;1.43;1.10;;;;;;;;;;5091393;28;20036;-59
2023/10/14 02:38:53;;;;;;;3.37;1.47;;;;;;;;;;5091799;28;20024;-59
2023/10/14 02:41:20;;;;;;;4.93;1.83;;;;;;;;;;5092037;28;20399;-59
2023/10/14 02:43:51;;;;;;;7.83;1.30;;;;;;;;;;5089503;28;20536;-58
2023/10/14 02:46:20;;;;;;;3.40;1.73;;;;;;;;;;5086726;28;20030;-58
2023/10/14 02:49:02;;;;;;;8.30;2.10;;;;;;;;;;5086905;28;20402;-59
2023/10/14 02:54:13;;;;;;;2.67;1.33;;;;;;;;;;5089727;28;20100;-58
2023/10/14 02:59:19;;;;;;;4.40;1.10;;;;;;;;;;5092128;28;20032;-59
2023/10/14 03:02:14;;;;;;;1.07;0.70;;;;;;;;;;5092283;28;20048;-59
2023/10/14 03:05:08;;;;;;;2.73;1.10;;;;;;;;;;5091556;28;20032;-59
2023/10/14 03:10:18;;;;;;;0.50;0.50;;;;;;;;;;5086646;28;20111;-59
2023/10/14 03:12:48;;;;;;;11.43;0.83;;;;;;;;;;5086357;28;20107;-59
2023/10/14 03:15:19;;;;;;;1.73;0.90;;;;;;;;;;5086384;28;20038;-59
2023/10/14 03:17:53;;;;;;;5.20;1.30;;;;;;;;;;5092254;28;20111;-59
2023/10/14 03:23:10;;;;;;;1.50;0.73;;;;;;;;;;5091990;28;20028;-58
2023/10/14 03:25:38;;;;;;;0.70;0.60;;;;;;;;;;5092263;28;20470;-58
2023/10/14 03:30:40;;;;;;;1.07;0.80;;;;;;;;;;5086121;28;20044;-59
2023/10/14 03:33:10;;;;;;;1.87;1.00;;;;;;;;;;5086570;28;20028;-58
2023/10/14 03:35:43;;;;;;;1.37;0.80;;;;;;;;;;5086154;28;20121;-58
2023/10/14 03:38:25;;;;;;;0.40;0.40;;;;;;;;;;5087157;28;20032;-58
2023/10/14 03:41:10;;;;;;;1.30;0.83;;;;;;;;;;5091821;28;20036;-58
2023/10/14 03:48:56;;;;;;;1.57;0.87;;;;;;;;;;5091863;28;20378;-59
2023/10/14 03:51:27;;;;;;;5.40;1.17;;;;;;;;;;5089064;28;20028;-59
2023/10/14 03:53:58;;;;;;;1.10;0.77;;;;;;;;;;5087606;28;20085;-58
2023/10/14 03:56:27;;;;;;;1.27;0.77;;;;;;;;;;5089636;28;20056;-58
2023/10/14 03:58:58;;;;;;;1.63;0.87;;;;;;;;;;5089940;28;20024;-58
2023/10/14 04:01:29;;;;;;;5.13;1.57;;;;;;;;;;5092536;28;20481;-58
2023/10/14 04:03:56;;;;;;;0.77;0.60;;;;;;;;;;5095392;28;20386;-58
2023/10/14 04:06:23;;;;;;;1.77;0.73;;;;;;;;;;5095444;28;20024;-59
2023/10/14 04:08:50;;;;;;;2.27;0.80;;;;;;;;;;5095154;28;20039;-58
2023/10/14 04:11:25;;;;;;;1.60;1.00;;;;;;;;;;5095231;28;20024;-58
2023/10/14 04:14:13;;;;;;;1.57;0.83;;;;;;;;;;5092539;28;20090;-58
2023/10/14 04:22:17;;;;;;;1.30;0.80;;;;;;;;;;5089438;28;20040;-58
2023/10/14 04:24:46;;;;;;;2.35;1.13;;;;;;;;;;5093654;28;20060;-58
2023/10/14 04:30:11;;;;;;;5.17;1.40;;;;;;;;;;5060661;28;20024;-58
2023/10/14 04:33:04;;;;;;;1.53;0.70;;;;;;;;;;5094425;28;20024;-59
2023/10/14 04:35:35;;;;;;;2.03;1.10;;;;;;;;;;5093841;28;20024;-59
2023/10/14 04:38:03;;;;;;;2.43;1.00;;;;;;;;;;5089454;28;20024;-58
2023/10/14 04:45:52;;;;;;;1.37;1.07;;;;;;;;;;5089465;28;20036;-58
2023/10/14 04:48:28;;;;;;;1.00;0.77;;;;;;;;;;5094804;28;20102;-58
2023/10/14 04:50:56;;;;;;;0.67;0.60;;;;;;;;;;5094329;28;20035;-58
2023/10/14 04:53:26;;;;;;;1.10;0.70;;;;;;;;;;5094560;28;20028;-58
2023/10/14 04:55:53;;;;;;;3.57;1.00;;;;;;;;;;5094489;28;20066;-59
2023/10/14 04:58:25;;;;;;;4.47;1.77;;;;;;;;;;5092541;28;20028;-58
2023/10/14 05:00:52;;;;;;;2.20;0.60;;;;;;;;;;5088369;28;20600;-58
2023/10/14 05:03:22;;;;;;;2.57;1.03;;;;;;;;;;5089085;28;20378;-58
2023/10/14 05:05:51;;;;;;;0.63;0.43;;;;;;;;;;5088481;28;20028;-58
2023/10/14 05:08:21;;;;;;;2.57;1.10;;;;;;;;;;5088892;28;20024;-58
2023/10/14 05:10:50;;;;;;;1.33;0.90;;;;;;;;;;5094205;28;20051;-58
2023/10/14 05:13:19;;;;;;;1.10;0.63;;;;;;;;;;5093779;28;20028;-58
2023/10/14 05:15:53;;;;;;;2.17;1.10;;;;;;;;;;5093220;28;20050;-58
2023/10/14 05:18:28;;;;;;;0.93;0.60;;;;;;;;;;5093907;28;20094;-59
2023/10/14 05:21:03;;;;;;;1.27;0.67;;;;;;;;;;5092480;28;20486;-58
2023/10/14 05:23:32;;;;;;;1.23;0.85;;;;;;;;;;5088559;28;20042;-59
2023/10/14 05:26:06;;;;;;;1.03;0.67;;;;;;;;;;5088198;28;20028;-59
2023/10/14 05:28:36;;;;;;;0.97;0.80;;;;;;;;;;5088414;28;20490;-58
2023/10/14 05:31:10;;;;;;;2.07;1.13;;;;;;;;;;5089574;28;20429;-58
2023/10/14 05:33:37;;;;;;;1.20;1.00;;;;;;;;;;5093945;28;20036;-58
2023/10/14 05:36:07;;;;;;;0.80;0.30;;;;;;;;;;5093243;28;20028;-58
2023/10/14 05:38:33;;;;;;;1.10;0.70;;;;;;;;;;5093252;28;20032;-58
2023/10/14 05:41:01;;;;;;;2.03;0.97;;;;;;;;;;5093163;28;20051;-58
2023/10/14 05:43:28;;;;;;;2.20;1.20;;;;;;;;;;5091706;28;20039;-59
2023/10/14 05:45:54;;;;;;;2.30;1.13;;;;;;;;;;5087719;28;20039;-59
2023/10/14 05:48:32;;;;;;;1.03;0.77;;;;;;;;;;5086871;28;20016;-59
2023/10/14 05:51:02;;;;;;;2.07;0.90;;;;;;;;;;5088196;28;20027;-59
2023/10/14 05:53:31;;;;;;;0.63;0.40;;;;;;;;;;5072453;28;20021;-59
2023/10/14 05:56:14;;;;;;;2.37;1.00;;;;;;;;;;5072662;28;20051;-60
2023/10/14 05:58:41;;;;;;;1.63;0.73;;;;;;;;;;5090289;28;20028;-59
2023/10/14 06:01:10;;;;;;;4.20;1.10;;;;;;;;;;5093237;28;20027;-59
2023/10/14 06:03:37;;;;;;;0.50;0.37;;;;;;;;;;5107930;28;20579;-58
2023/10/14 06:06:25;;;;;;;0.40;0.30;;;;;;;;;;5109473;28;20098;-59
2023/10/14 06:08:53;;;;;;;0.93;0.73;;;;;;;;;;5099422;28;20035;-59
2023/10/14 06:11:19;;;;;;;1.23;0.90;;;;;;;;;;5087398;28;20020;-59
2023/10/14 06:13:46;;;;;;;1.53;1.03;;;;;;;;;;5087631;28;20030;-59
2023/10/14 06:16:14;;;;;;;2.87;1.23;;;;;;;;;;5088393;28;20497;-58
2023/10/14 06:18:41;;;;;;;0.93;0.70;;;;;;;;;;5092953;28;20474;-58
2023/10/14 06:21:10;;;;;;;6.30;1.03;;;;;;;;;;5092542;28;20410;-59
2023/10/14 06:23:40;;;;;;;0.77;0.50;;;;;;;;;;5092078;28;20489;-58
2023/10/14 06:26:07;;;;;;;0.93;0.70;;;;;;;;;;5092796;28;20095;-58
2023/10/14 06:28:34;;;;;;;2.30;0.80;;;;;;;;;;5090609;28;20095;-59
2023/10/14 06:31:00;;;;;;;3.77;0.97;;;;;;;;;;5087387;28;20109;-59
2023/10/14 06:33:29;;;;;;;1.53;0.73;;;;;;;;;;5086353;28;20124;-59
2023/10/14 06:36:03;;;;;;;0.77;0.73;;;;;;;;;;5086812;28;20028;-58
2023/10/14 06:38:33;;;;;;;1.85;0.95;;;;;;;;;;5088579;28;20122;-58
2023/10/14 06:41:01;;;;;;;2.47;1.03;;;;;;;;;;5092426;28;20028;-58
2023/10/14 06:43:28;;;;;;;2.07;0.80;;;;;;;;;;5092618;28;20735;-59
2023/10/14 06:45:56;;;;;;;1.13;0.70;;;;;;;;;;5092054;28;20413;-58
2023/10/14 06:48:23;;;;;;;1.37;0.83;;;;;;;;;;5092608;28;20028;-58
2023/10/14 06:50:50;;;;;;;3.57;0.87;;;;;;;;;;5090712;28;20494;-58
2023/10/14 06:53:20;;;;;;;1.13;0.90;;;;;;;;;;5087171;28;20498;-59
2023/10/14 06:55:46;;;;;;;4.63;0.70;;;;;;;;;;5086783;28;20399;-59
2023/10/14 06:58:18;;;;;;;0.73;0.63;;;;;;;;;;5086523;28;20061;-59
2023/10/14 07:00:46;;;;;;;0.97;0.80;;;;;;;;;;5086489;28;20450;-59
2023/10/14 07:03:12;;;;;;;2.20;0.70;;;;;;;;;;5092139;28;20020;-58
2023/10/14 07:05:43;;;;;;;1.07;0.80;;;;;;;;;;5092285;28;20093;-59
2023/10/14 07:08:11;;;;;;;1.10;0.70;;;;;;;;;;5092177;28;20024;-58
2023/10/14 07:10:38;;;;;;;2.97;1.00;;;;;;;;;;5091869;28;20094;-59
2023/10/14 07:13:05;;;;;;;1.27;0.93;;;;;;;;;;5090745;28;20509;-59
2023/10/14 07:15:36;;;;;;;0.87;0.60;;;;;;;;;;5086597;28;20028;-58
2023/10/14 07:18:02;;;;;;;0.83;0.77;;;;;;;;;;5086749;28;20027;-58
2023/10/14 07:20:33;;;;;;;0.70;0.70;;;;;;;;;;5086636;28;20527;-59
2023/10/14 07:23:01;;;;;;;1.23;0.60;;;;;;;;;;5086516;28;20063;-58
2023/10/14 07:25:31;;;;;;;1.97;1.23;;;;;;;;;;5091914;28;20122;-58
2023/10/14 07:27:59;;;;;;;1.23;0.87;;;;;;;;;;5093045;28;20016;-58
2023/10/14 07:30:27;;;;;;;1.43;0.97;;;;;;;;;;5096022;28;20020;-58
2023/10/14 07:32:55;;;;;;;4.83;1.37;;;;;;;;;;5095822;28;20028;-58
2023/10/14 07:35:22;;;;;;;1.60;1.07;;;;;;;;;;5095501;28;20028;-59
2023/10/14 07:37:49;;;;;;;2.53;1.17;;;;;;;;;;5090726;28;20036;-58
2023/10/14 07:40:22;;;;;;;1.63;1.10;;;;;;;;;;5090642;28;20057;-58
2023/10/14 07:43:10;;;;;;;2.93;1.13;;;;;;;;;;5090297;28;20020;-58
2023/10/14 07:45:46;;;;;;;3.73;0.97;;;;;;;;;;5090626;28;20347;-58
2023/10/14 07:48:13;;;;;;;1.07;0.87;;;;;;;;;;5095826;28;20455;-58
2023/10/14 07:50:41;;;;;;;2.27;1.23;;;;;;;;;;5096023;28;20020;-58
2023/10/14 07:53:08;;;;;;;0.83;0.60;;;;;;;;;;5095701;28;20080;-58
2023/10/14 07:55:35;;;;;;;1.47;1.00;;;;;;;;;;5095144;28;20039;-58
2023/10/14 07:58:04;;;;;;;1.93;0.90;;;;;;;;;;5094273;28;20498;-59
2023/10/14 08:00:37;;;;;;;5.50;1.23;;;;;;;;;;5090064;28;20032;-58
2023/10/14 08:03:06;;;;;;;1.40;0.87;;;;;;;;;;5090267;28;20704;-58
2023/10/14 08:05:38;;;;;;;0.37;0.30;;;;;;;;;;5090018;28;20386;-58
2023/10/14 08:08:06;;;;;;;0.87;0.73;;;;;;;;;;5090507;28;20536;-58
2023/10/14 08:10:34;;;;;;;1.07;0.67;;;;;;;;;;5094585;28;20490;-58
2023/10/14 08:13:09;;;;;;;1.70;1.03;;;;;;;;;;5095357;28;20024;-59
2023/10/14 08:15:36;;;;;;;2.93;1.33;;;;;;;;;;5095193;28;20120;-58
2023/10/14 08:18:07;;;;;;;0.70;0.47;;;;;;;;;;5095403;28;20528;-58
2023/10/14 08:20:38;;;;;;;2.60;0.90;;;;;;;;;;5094118;28;20024;-59
2023/10/14 08:23:10;;;;;;;1.43;0.87;;;;;;;;;;5089301;28;20093;-58
2023/10/14 08:25:38;;;;;;;1.80;0.63;;;;;;;;;;5089566;28;20439;-58
2023/10/14 08:28:08;;;;;;;0.73;0.53;;;;;;;;;;5089588;28;20078;-59
2023/10/14 08:30:50;;;;;;;0.73;0.63;;;;;;;;;;5090323;28;20024;-58
2023/10/14 08:33:21;;;;;;;1.50;1.10;;;;;;;;;;5094722;28;20107;-58
2023/10/14 08:35:50;;;;;;;1.17;0.90;;;;;;;;;;5094011;28;20086;-58
2023/10/14 08:38:22;;;;;;;1.07;0.70;;;;;;;;;;5094790;28;20098;-59
2023/10/14 08:41:00;;;;;;;1.00;0.70;;;;;;;;;;5093608;28;20032;-58
2023/10/14 08:43:28;;;;;;;0.80;0.70;;;;;;;;;;5092655;28;20028;-58
2023/10/14 08:45:55;;;;;;;1.90;0.83;;;;;;;;;;5089414;28;20016;-58
2023/10/14 08:48:26;;;;;;;1.00;0.77;;;;;;;;;;5089306;28;20425;-58
2023/10/14 08:50:56;;;;;;;0.50;0.43;;;;;;;;;;5088920;28;20379;-58
2023/10/14 08:53:24;;;;;;;1.33;0.80;;;;;;;;;;5090338;28;20114;-58
2023/10/14 08:55:53;;;;;;;1.17;0.77;;;;;;;;;;5094519;28;20036;-58
2023/10/14 08:58:23;;;;;;;1.43;1.00;;;;;;;;;;5094496;28;20052;-58
2023/10/14 09:00:51;;;;;;;1.37;1.00;;;;;;;;;;5094462;28;20090;-58
2023/10/14 09:03:18;;;;;;;2.87;0.90;;;;;;;;;;5093848;28;20020;-58
2023/10/14 09:05:45;;;;;;;2.60;1.53;;;;;;;;;;5092393;28;20021;-58
2023/10/14 09:08:14;;;;;;;1.00;0.77;;;;;;;;;;5088816;28;20021;-57
2023/10/14 09:10:41;;;;;;;2.40;0.90;;;;;;;;;;5088782;28;20028;-58
2023/10/14 09:13:08;;;;;;;1.60;1.00;;;;;;;;;;5088678;28;20028;-58
2023/10/14 09:15:38;;;;;;;0.77;0.67;;;;;;;;;;5089538;28;20028;-58
2023/10/14 09:18:11;;;;;;;1.30;1.13;;;;;;;;;;5093892;28;20029;-58
2023/10/14 09:20:39;;;;;;;10.67;1.10;;;;;;;;;;5093737;28;20348;-58
2023/10/14 09:23:16;;;;;;;1.87;1.07;;;;;;;;;;5094002;28;20028;-58
2023/10/14 09:25:44;;;;;;;1.30;0.93;;;;;;;;;;5093226;28;20445;-58
2023/10/14 09:28:11;;;;;;;1.20;0.73;;;;;;;;;;5092158;28;20076;-59
2023/10/14 09:30:44;;;;;;;2.17;1.10;;;;;;;;;;5088180;28;20027;-58
2023/10/14 09:33:15;;;;;;;1.57;1.10;;;;;;;;;;5088438;28;20020;-58
2023/10/14 09:35:44;;;;;;;1.77;1.13;;;;;;;;;;5088117;28;20036;-58
2023/10/14 09:38:15;;;;;;;3.23;1.23;;;;;;;;;;5089250;28;20024;-58
2023/10/14 09:40:42;;;;;;;4.30;1.33;;;;;;;;;;5093400;28;20383;-59
2023/10/14 09:43:09;;;;;;;4.40;1.57;;;;;;;;;;5093620;28;20024;-58
2023/10/14 09:45:36;;;;;;;1.90;1.10;;;;;;;;;;5093460;28;20466;-58
2023/10/14 09:48:04;;;;;;;5.87;1.63;;;;;;;;;;5093188;28;20028;-57
2023/10/14 09:50:32;;;;;;;2.53;1.60;;;;;;;;;;5091607;28;20429;-58
2023/10/14 09:53:01;;;;;;;7.03;1.80;;;;;;;;;;5088163;28;20020;-58
2023/10/14 09:55:27;;;;;;;3.43;2.03;;;;;;;;;;5087541;28;20044;-58
2023/10/14 09:57:54;;;;;;;5.93;2.00;;;;;;;;;;5087955;28;20474;-58
2023/10/14 10:00:22;;;;;;;6.73;2.47;;;;;;;;;;5087759;28;20421;-57
2023/10/14 10:02:50;;;;;;;1.07;0.80;;;;;;;;;;5091867;28;20032;-58
2023/10/14 10:05:20;;;;;;;0.90;0.83;;;;;;;;;;5093181;28;20028;-58
2023/10/14 10:08:07;;;;;;;10.83;2.07;;;;;;;;;;5092746;28;20058;-58
2023/10/14 10:10:36;;;;;;;0.93;0.63;;;;;;;;;;5092830;28;20031;-58
2023/10/14 10:13:03;;;;;;;4.00;2.60;;;;;;;;;;5091146;28;20028;-58
2023/10/14 10:15:35;;;;;;;1.90;1.53;;;;;;;;;;5087582;28;20424;-58
2023/10/14 10:18:05;;;;;;;2.40;1.50;;;;;;;;;;5082658;28;20028;-58
2023/10/14 10:20:41;;;;;;;1.03;0.70;;;;;;;;;;5087604;28;20046;-58
2023/10/14 10:23:09;;;;;;;3.37;1.73;;;;;;;;;;5088575;28;20023;-58
2023/10/14 10:25:36;;;;;;;3.47;1.93;;;;;;;;;;5092808;28;20035;-58
2023/10/14 10:28:23;;;;;;;1.20;1.00;;;;;;;;;;5092666;28;20032;-58
2023/10/14 10:30:50;;;;;;;1.57;1.07;;;;;;;;;;5092782;28;20024;-58
2023/10/14 10:33:16;;;;;;;0.57;0.57;;;;;;;;;;5092373;28;20335;-58
2023/10/14 10:36:11;;;;;;;24.53;1.90;;;;;;;;;;5083156;28;20139;-58
2023/10/14 10:38:37;;;;;;;1.80;1.40;;;;;;;;;;5067128;28;20045;-58
2023/10/14 10:41:19;;;;;;;1.47;1.13;;;;;;;;;;5066561;28;20024;-58
2023/10/14 10:43:47;;;;;;;1.77;1.23;;;;;;;;;;5074899;28;20119;-58
2023/10/14 10:46:29;;;;;;;1.53;1.07;;;;;;;;;;5089962;28;20028;-58
2023/10/14 10:48:56;;;;;;;2.20;1.20;;;;;;;;;;5092468;28;20027;-58
2023/10/14 10:51:23;;;;;;;1.37;1.07;;;;;;;;;;5091920;28;20028;-58
2023/10/14 10:53:52;;;;;;;2.97;1.40;;;;;;;;;;5092307;28;20032;-58
2023/10/14 10:56:20;;;;;;;1.30;0.80;;;;;;;;;;5091883;28;20036;-58
2023/10/14 10:58:47;;;;;;;0.73;0.60;;;;;;;;;;5088665;28;20023;-58
2023/10/14 11:01:14;;;;;;;1.50;1.20;;;;;;;;;;5086812;28;20027;-59
2023/10/14 11:03:45;;;;;;;2.17;1.03;;;;;;;;;;5086004;28;20044;-58
2023/10/14 11:06:13;;;;;;;2.90;1.17;;;;;;;;;;5086826;28;20028;-58
2023/10/14 11:08:42;;;;;;;2.93;0.97;;;;;;;;;;5089551;28;20024;-58
2023/10/14 11:11:09;;;;;;;1.03;0.83;;;;;;;;;;5092041;28;20034;-58
2023/10/14 11:13:39;;;;;;;0.93;0.80;;;;;;;;;;5091918;28;20067;-58
2023/10/14 11:16:12;;;;;;;1.03;0.73;;;;;;;;;;5091960;28;20494;-58
2023/10/14 11:18:46;;;;;;;3.07;1.17;;;;;;;;;;5092189;28;20375;-58
2023/10/14 11:21:14;;;;;;;0.77;0.70;;;;;;;;;;5088390;28;20024;-58
2023/10/14 11:23:42;;;;;;;2.77;1.33;;;;;;;;;;5086588;28;20404;-58
2023/10/14 11:26:12;;;;;;;0.77;0.73;;;;;;;;;;5086072;28;20067;-58
2023/10/14 11:28:45;;;;;;;6.80;0.93;;;;;;;;;;5086708;28;20486;-58
2023/10/14 11:31:13;;;;;;;0.73;0.63;;;;;;;;;;5089683;28;20467;-58
2023/10/14 11:33:39;;;;;;;0.90;0.70;;;;;;;;;;5090972;28;20024;-58
2023/10/14 11:36:06;;;;;;;1.37;1.07;;;;;;;;;;5090357;28;20071;-58
2023/10/14 11:38:33;;;;;;;1.83;1.27;;;;;;;;;;5091248;28;20501;-57
2023/10/14 11:41:02;;;;;;;2.40;1.10;;;;;;;;;;5091834;28;20739;-57
2023/10/14 11:43:30;;;;;;;0.50;0.50;;;;;;;;;;5088286;28;20028;-57
2023/10/14 11:45:57;;;;;;;1.87;0.93;;;;;;;;;;5086535;28;20078;-57
2023/10/14 11:48:28;;;;;;;1.77;1.10;;;;;;;;;;5086089;28;20031;-58
2023/10/14 11:51:02;;;;;;;1.17;0.87;;;;;;;;;;5086416;28;20032;-57
2023/10/14 11:53:32;;;;;;;1.83;0.63;;;;;;;;;;5088841;28;20020;-58
2023/10/14 11:56:05;;;;;;;2.03;0.80;;;;;;;;;;5091771;28;20036;-57
2023/10/14 11:58:33;;;;;;;1.07;0.70;;;;;;;;;;5091401;28;20082;-58
2023/10/14 12:01:00;;;;;;;11.97;1.63;;;;;;;;;;5091438;28;20042;-57
2023/10/14 12:03:27;;;;;;;1.83;1.10;;;;;;;;;;5091713;28;20619;-57
2023/10/14 12:06:00;;;;;;;1.60;1.10;;;;;;;;;;5088529;28;20036;-58
2023/10/14 12:08:26;;;;;;;2.63;1.03;;;;;;;;;;5086181;28;20024;-57
2023/10/14 12:10:54;;;;;;;2.13;1.47;;;;;;;;;;5085738;28;20068;-58
2023/10/14 12:13:21;;;;;;;1.87;1.27;;;;;;;;;;5086283;28;20028;-58
2023/10/14 12:15:49;;;;;;;1.53;1.03;;;;;;;;;;5090887;28;20508;-57
2023/10/14 12:18:16;;;;;;;2.47;1.53;;;;;;;;;;5094873;28;20032;-57
2023/10/14 12:20:46;;;;;;;1.70;1.43;;;;;;;;;;5095390;28;20073;-57
2023/10/14 12:23:14;;;;;;;2.37;1.30;;;;;;;;;;5094528;28;20094;-57
2023/10/14 12:25:40;;;;;;;4.87;1.50;;;;;;;;;;5094943;28;20032;-58
2023/10/14 12:28:08;;;;;;;4.27;1.67;;;;;;;;;;5092470;28;20020;-57
2023/10/14 12:30:43;;;;;;;2.97;1.63;;;;;;;;;;5089556;28;20020;-58
2023/10/14 12:33:18;;;;;;;12.97;2.00;;;;;;;;;;5089576;28;20035;-57
2023/10/14 12:35:45;;;;;;;;;;;;;;;;;;5069193;28;20060;-58
2023/10/14 12:38:15;;;;;;;2.50;1.87;;;;;;;;;;5071603;28;20279;-58
2023/10/14 12:40:45;;;;;;;3.17;2.07;;;;;;;;;;5074412;28;20032;-57
2023/10/14 12:43:15;;;;;;;2.00;1.40;;;;;;;;;;5074862;28;20036;-59
2023/10/14 12:45:43;;;;;;;2.20;1.70;;;;;;;;;;5079352;28;20024;-58
2023/10/14 12:48:10;;;;;;;3.20;1.50;;;;;;;;;;5094545;28;20058;-57
2023/10/14 12:50:40;;;;;;;4.37;2.10;;;;;;;;;;5091407;28;20114;-59
2023/10/14 12:53:10;;;;;;;13.67;2.63;;;;;;;;;;5089126;28;20020;-57
2023/10/14 12:55:41;;;;;;;4.47;1.77;;;;;;;;;;5089044;28;20518;-57
2023/10/14 12:58:08;;;;;;;4.63;2.63;;;;;;;;;;5088924;28;20062;-57
2023/10/14 13:00:35;;;;;;;4.20;1.50;;;;;;;;;;5091276;28;20020;-58
2023/10/14 13:03:09;;;;;;;4.87;1.63;;;;;;;;;;5105371;28;20108;-57
2023/10/14 13:05:37;;;;;;;5.03;1.93;;;;;;;;;;5084123;27;20474;-57
2023/10/14 13:08:05;;;;;;;2.83;2.23;;;;;;;;;;5094166;28;20257;-57
2023/10/14 13:10:32;;;;;;;2.40;1.37;;;;;;;;;;5093427;28;20028;-58
2023/10/14 13:13:00;;;;;;;2.53;1.80;;;;;;;;;;5091395;28;20056;-57
2023/10/14 13:15:28;;;;;;;4.77;2.10;;;;;;;;;;5088814;28;20020;-57
2023/10/14 13:17:58;;;;;;;1.70;1.33;;;;;;;;;;5088677;28;20020;-57
2023/10/14 13:20:28;;;;;;;2.67;1.63;;;;;;;;;;5088586;28;20028;-58
2023/10/14 13:23:03;;;;;;;2.90;1.27;;;;;;;;;;5090329;28;20020;-57
2023/10/14 13:25:30;;;;;;;3.07;1.60;;;;;;;;;;5093169;28;20111;-58
2023/10/14 13:27:57;;;;;;;2.67;1.97;;;;;;;;;;5093720;28;20020;-57
2023/10/14 13:30:23;;;;;;;4.53;2.90;;;;;;;;;;5093456;28;20070;-58
2023/10/14 13:32:58;;;;;;;5.87;3.33;;;;;;;;;;5093492;28;20032;-57
2023/10/14 13:35:25;;;;;;;7.97;3.25;;;;;;;;;;5090196;28;20474;-57
2023/10/14 13:37:51;;;;;;;5.33;2.00;;;;;;;;;;5088319;28;20044;-58
2023/10/14 13:40:21;;;;;;;1.53;1.03;;;;;;;;;;5088325;28;20100;-58
2023/10/14 13:42:49;;;;;;;2.77;1.90;;;;;;;;;;5088318;28;20031;-58
2023/10/14 13:45:16;;;;;;;10.13;2.23;;;;;;;;;;5089764;28;20416;-57
2023/10/14 13:47:43;;;;;;;2.53;1.90;;;;;;;;;;5093425;28;20024;-58
2023/10/14 13:50:31;;;;;;;2.60;1.90;;;;;;;;;;5093294;28;20091;-58
2023/10/14 13:52:58;;;;;;;10.00;2.00;;;;;;;;;;5093248;28;20475;-58
2023/10/14 13:55:27;;;;;;;3.37;2.50;;;;;;;;;;5093078;28;20031;-57
2023/10/14 13:57:54;;;;;;;4.73;2.97;;;;;;;;;;5090265;28;20081;-58
2023/10/14 14:00:37;;;;;;;2.60;1.93;;;;;;;;;;5087464;28;20479;-58
2023/10/14 14:03:05;;;;;;;3.40;2.30;;;;;;;;;;5087767;28;20107;-58
2023/10/14 14:05:32;;;;;;;4.07;2.83;;;;;;;;;;5087899;28;20017;-58
2023/10/14 14:07:58;;;;;;;5.17;3.27;;;;;;;;;;5090419;28;20032;-58
2023/10/14 14:10:25;;;;;;;3.60;2.83;;;;;;;;;;5092472;28;20063;-58
2023/10/14 14:12:55;;;;;;;2.40;1.93;;;;;;;;;;5093031;28;20028;-58
2023/10/14 14:15:23;;;;;;;8.77;5.23;;;;;;;;;;5092745;28;20112;-58
2023/10/14 14:17:50;;;;;;;7.37;3.93;;;;;;;;;;5092343;28;20039;-58
2023/10/14 14:20:17;;;;;;;5.37;3.80;;;;;;;;;;5090075;28;20020;-58
2023/10/14 14:22:44;;;;;;;7.43;3.40;;;;;;;;;;5087244;28;20145;-58
2023/10/14 14:25:12;;;;;;;6.60;4.10;;;;;;;;;;5087393;28;20401;-58
2023/10/14 14:27:40;;;;;;;10.53;4.30;;;;;;;;;;5087429;28;20479;-58
2023/10/14 14:30:08;;;;;;;7.13;3.77;;;;;;;;;;5089502;28;20099;-58
2023/10/14 14:32:39;;;;;;;3.00;2.30;;;;;;;;;;5092245;28;20032;-58
2023/10/14 14:35:09;;;;;;;5.23;2.60;;;;;;;;;;5092332;28;20364;-59
2023/10/14 14:37:36;;;;;;;2.93;1.60;;;;;;;;;;5091822;28;20036;-57
2023/10/14 14:40:14;;;;;;;5.37;2.13;;;;;;;;;;5092185;28;20077;-58
2023/10/14 14:42:46;;;;;;;3.40;2.10;;;;;;;;;;5089885;28;20035;-58
2023/10/14 14:45:22;;;;;;;12.37;1.93;;;;;;;;;;5086898;28;20055;-58
2023/10/14 14:47:50;;;;;;;3.30;1.77;;;;;;;;;;5104928;28;20058;-58
2023/10/14 14:50:18;;;;;;;3.53;2.00;;;;;;;;;;5107605;28;20484;-58
2023/10/14 14:52:45;;;;;;;2.90;1.83;;;;;;;;;;5109820;28;20023;-58
2023/10/14 14:55:14;;;;;;;2.20;1.57;;;;;;;;;;5112589;28;20390;-58
2023/10/14 14:57:46;;;;;;;3.87;2.37;;;;;;;;;;5102586;28;20035;-58
2023/10/14 15:00:26;;;;;;;2.80;2.03;;;;;;;;;;5092134;28;20467;-58
2023/10/14 15:02:56;;;;;;;4.03;2.13;;;;;;;;;;5092380;28;20107;-58
2023/10/14 15:05:26;;;;;;;3.93;2.47;;;;;;;;;;5088937;28;20066;-58
2023/10/14 15:07:54;;;;;;;2.50;1.77;;;;;;;;;;5086808;28;20585;-59
2023/10/14 15:10:23;;;;;;;3.00;2.00;;;;;;;;;;5086171;28;20135;-58
2023/10/14 15:12:49;;;;;;;5.50;2.33;;;;;;;;;;5086808;28;20478;-58
2023/10/14 15:15:17;;;;;;;3.57;2.23;;;;;;;;;;5089431;28;20042;-58
2023/10/14 15:17:47;;;;;;;5.60;3.00;;;;;;;;;;5092153;28;20063;-58
2023/10/14 15:20:13;;;;;;;4.40;2.70;;;;;;;;;;5092054;28;20037;-58
2023/10/14 15:22:41;;;;;;;13.27;3.07;;;;;;;;;;5091772;28;20036;-58
2023/10/14 15:25:11;;;;;;;8.63;2.83;;;;;;;;;;5092021;28;20020;-60
2023/10/14 15:27:39;;;;;;;5.33;2.57;;;;;;;;;;5089057;28;20036;-59
2023/10/14 15:30:11;;;;;;;3.70;1.97;;;;;;;;;;5086281;28;20115;-58
2023/10/14 15:32:42;;;;;;;3.83;2.20;;;;;;;;;;5086575;28;20032;-58
2023/10/14 15:35:13;;;;;;;7.20;2.85;;;;;;;;;;5086868;28;20024;-58
2023/10/14 15:37:45;;;;;;;1.75;1.17;;;;;;;;;;5089291;28;20485;-58
2023/10/14 15:40:12;;;;;;;5.43;1.77;;;;;;;;;;5091775;28;20022;-59
2023/10/14 15:42:39;;;;;;;1.88;1.58;;;;;;;;;;5091339;28;20032;-59
2023/10/14 15:45:19;;;;;;;3.05;1.85;;;;;;;;;;5092024;28;20352;-58
2023/10/14 15:47:47;;;;;;;1.08;0.90;;;;;;;;;;5091743;28;20035;-58
2023/10/14 15:50:14;;;;;;;1.55;1.20;;;;;;;;;;5091777;28;20149;-59
2023/10/14 15:52:43;;;;;;;3.00;1.42;;;;;;;;;;5090513;28;20070;-59
2023/10/14 15:55:10;;;;;;;2.17;1.52;;;;;;;;;;5090023;28;20040;-59